Airfield :







YOU CAN JOIN US ON...

 
LOGIN :

Register | Disclaimer

   EN    FR    IT 

 









Legend :    VFR   Marginal VFR   IFR   Intensive IFR   Very Intensive IFR
Visi :
Ceiling :
>= 8 km
>= 3000ft
5 to 8 km
1000 to 3000 ft
1500m to 5 km
500 to 1000 ft
800 to 1500m
200 to 500 ft
< 800m
< 200 ft
Symbols :   Thunderstorms  Fog  Heavy snow  Heavy precipitations  Wind > 20 kt






- Airport Elevation : 215 ft
- IATA code : MSS


KMSS - Massena International Richards Field

CURRENT METAR :
  • 280653Z AUTO 35003KT 6SM -RA FEW015 OVC026 03/ A2940 RMK AO2 PRESRR SLP960 P0000 T0033 $

EXPIRED METARs :
  • 280637Z AUTO 02007KT 6SM -RA FEW008 BKN015 OVC032 03/ A2939 RMK AO2 P0000 T0033 $
  • 280553Z AUTO 36009KT 4SM -RA BR OVC006 04/04 A2937 RMK AO2 CIG 004V010 SLP948 P0003 60006 T00390039 10056 20039 53011 $
  • 280520Z AUTO 36009KT 3SM -RA BR OVC005 04/04 A2936 RMK AO2 P0001 T00390039
  • 280453Z AUTO 36007KT 2 1/2SM -RA BR OVC007 04/04 A2935 RMK AO2 RAB33 SLP941 P0001 T00390039 401170039

TAF KMSS
Valid from the 28 at 07:00 until the 29 at 06:00 UTC


280717Z 2807/2906 01008KT 6SM -RASN BR OVC025
FM281000 32007KT P6SM -SHSN VCSH OVC008
FM281200 32008G14KT P6SM VCSH OVC010
FM281400 32009G16KT P6SM BKN035
FM282000 32009KT P6SM SCT050
KZBW FIR / North America



MET'MAP, your aeronautical weather chart ! - Copyright ORBIFLY December 2007 - Disclaimer

ORBIFLY MET'MAP TEAM :

Programming & Development : Alexandra Zaïnal
Original concept : Baudouin d'Aumeries
Technical & hardware support : Manuel Goepfert
Assistance : Marc-Olivier Méhu




SOURCES & CREDITS :

   NOAA